createdAt,value
2023-03-31T00:01:47.640Z,97126.13
2023-03-31T00:04:46.685Z,97128.34
2023-03-31T00:07:06.485Z,97123.03
2023-03-31T00:09:51.919Z,97121.16
2023-03-31T00:12:26.234Z,97113.75
2023-03-31T00:15:06.539Z,97106.44
2023-03-31T00:18:49.078Z,97111.03
2023-03-31T00:21:03.960Z,97122.50
2023-03-31T00:23:34.040Z,97114.16
2023-03-31T00:28:51.940Z,97104.88
2023-03-31T00:31:47.611Z,97100.41
2023-03-31T00:34:17.316Z,97097.47
2023-03-31T00:37:06.962Z,97101.84
2023-03-31T00:39:35.912Z,97107.47
2023-03-31T00:42:11.738Z,97100.81
2023-03-31T00:48:15.620Z,97083.28
2023-03-31T00:48:42.309Z,97090.91
2023-03-31T00:51:15.087Z,97080.59
2023-03-31T00:53:43.238Z,97076.41
2023-03-31T00:56:15.796Z,97064.97
2023-03-31T00:58:47.324Z,97065.78
2023-03-31T01:01:21.818Z,97060.56
2023-03-31T01:03:50.895Z,97055.91
2023-03-31T01:06:21.969Z,97065.38
2023-03-31T01:08:54.869Z,97059.22
2023-03-31T01:11:28.228Z,97054.75
2023-03-31T01:13:57.542Z,97049.53
2023-03-31T01:16:28.255Z,97044.13
2023-03-31T01:19:00.939Z,97052.66
2023-03-31T01:25:31.425Z,97039.66
2023-03-31T01:28:36.268Z,97026.94
2023-03-31T01:31:51.418Z,97032.88
2023-03-31T01:34:21.588Z,97028.28
2023-03-31T01:37:25.942Z,97025.78
2023-03-31T01:40:15.809Z,97025.56
2023-03-31T01:43:04.355Z,97024.22
2023-03-31T01:45:54.106Z,97007.44
2023-03-31T01:48:31.181Z,97004.72
2023-03-31T01:51:03.602Z,97005.34
2023-03-31T01:53:38.073Z,97000.56
2023-03-31T01:56:31.919Z,96997.72
2023-03-31T01:59:41.587Z,96991.78
2023-03-31T02:02:15.839Z,96996.34
2023-03-31T02:04:58.154Z,96988.66
2023-03-31T02:07:35.937Z,96996.03
2023-03-31T02:10:12.460Z,96992.38
2023-03-31T02:12:44.204Z,96991.31
2023-03-31T02:15:18.925Z,96991.53
2023-03-31T02:17:56.282Z,96990.50
2023-03-31T02:20:28.458Z,96990.38
2023-03-31T02:23:03.797Z,97000.53
2023-03-31T02:28:45.966Z,96994.25
2023-03-31T02:31:30.619Z,96999.56
2023-03-31T02:34:08.276Z,96998.75
2023-03-31T02:36:36.384Z,97004.78
2023-03-31T02:39:10.625Z,97004.47
2023-03-31T02:41:53.920Z,97011.75
2023-03-31T02:44:29.161Z,97001.53
2023-03-31T02:47:18.457Z,97008.81
2023-03-31T02:49:55.036Z,97010.25
2023-03-31T02:53:05.240Z,97017.13
2023-03-31T02:55:48.733Z,97016.31
2023-03-31T02:58:52.110Z,97014.53
2023-03-31T03:02:27.282Z,97020.69
2023-03-31T03:05:36.483Z,97024.19
2023-03-31T03:08:29.191Z,97023.31
2023-03-31T03:11:13.112Z,97026.75
2023-03-31T03:14:39.911Z,97026.03
2023-03-31T03:17:45.273Z,97039.06
2023-03-31T03:20:52.566Z,97050.81
2023-03-31T03:23:26.406Z,97041.84
2023-03-31T03:28:52.331Z,97058.50
2023-03-31T03:31:31.615Z,97063.38
2023-03-31T03:37:22.671Z,97074.66
2023-03-31T03:40:19.122Z,97065.44
2023-03-31T03:45:51.882Z,97081.28
2023-03-31T03:48:19.805Z,97081.50
2023-03-31T03:50:47.586Z,97088.16
2023-03-31T03:53:15.874Z,97082.03
2023-03-31T03:55:42.653Z,97089.13
2023-03-31T03:58:09.454Z,97100.09
2023-03-31T04:00:36.258Z,97099.63
2023-03-31T04:03:03.933Z,97102.97
2023-03-31T04:05:31.830Z,97110.69
2023-03-31T04:08:02.119Z,97115.47
2023-03-31T04:10:29.476Z,97116.28
2023-03-31T04:12:56.667Z,97118.47
2023-03-31T04:15:23.410Z,97119.31
2023-03-31T04:17:54.924Z,97120.13
2023-03-31T04:20:21.819Z,97124.63
2023-03-31T04:22:53.870Z,97117.41
2023-03-31T04:25:23.970Z,97118.22
2023-03-31T04:27:55.266Z,97119.09
2023-03-31T04:30:31.153Z,97112.09
2023-03-31T04:33:04.518Z,97118.75
2023-03-31T04:35:53.041Z,97113.53
2023-03-31T04:38:24.495Z,97112.91
2023-03-31T04:40:53.409Z,97116.00
2023-03-31T04:43:21.693Z,97115.19
2023-03-31T04:45:48.780Z,97109.53
2023-03-31T04:48:16.230Z,97110.53
2023-03-31T04:50:47.333Z,97106.28
2023-03-31T04:53:13.983Z,97111.28
2023-03-31T04:55:50.910Z,97100.63
2023-03-31T04:58:18.021Z,97093.91
2023-03-31T05:00:48.086Z,97099.72
2023-03-31T05:03:20.820Z,97088.47
2023-03-31T05:05:47.721Z,97080.78
2023-03-31T05:08:14.686Z,97082.59
2023-03-31T05:10:51.326Z,97081.53
2023-03-31T05:13:18.739Z,97074.88
2023-03-31T05:15:48.285Z,97067.66
2023-03-31T05:18:18.621Z,97066.09
2023-03-31T05:20:45.819Z,97051.84
2023-03-31T05:23:13.720Z,97055.66
2023-03-31T05:25:43.402Z,97058.13
2023-03-31T05:28:11.118Z,97056.09
2023-03-31T05:30:37.920Z,97055.41
2023-03-31T05:33:08.243Z,97052.56
2023-03-31T05:35:37.669Z,97051.81
2023-03-31T05:38:08.564Z,97054.44
2023-03-31T05:40:36.294Z,97049.44
2023-03-31T05:43:03.538Z,97041.13
2023-03-31T05:45:36.808Z,97043.59
2023-03-31T05:48:04.592Z,97041.72
2023-03-31T05:50:38.676Z,97038.97
2023-03-31T05:53:06.518Z,97032.56
2023-03-31T05:55:39.234Z,97036.84
2023-03-31T05:58:07.214Z,97030.28
2023-03-31T06:00:39.084Z,97026.34
2023-03-31T06:03:08.162Z,97019.31
2023-03-31T06:05:36.120Z,97023.97
2023-03-31T06:08:04.317Z,97021.72
2023-03-31T06:10:31.481Z,97026.56
2023-03-31T06:12:58.241Z,97015.03
2023-03-31T06:15:35.636Z,97012.78
2023-03-31T06:18:02.912Z,97016.34
2023-03-31T06:20:30.233Z,97022.28
2023-03-31T06:22:59.874Z,97020.59
2023-03-31T06:25:37.133Z,97016.19
2023-03-31T06:28:11.240Z,97020.13
2023-03-31T06:30:42.036Z,97013.63
2023-03-31T06:33:09.978Z,97024.44
2023-03-31T06:35:41.009Z,97031.31
2023-03-31T06:38:11.069Z,97021.81
2023-03-31T06:40:41.284Z,97026.09
2023-03-31T06:43:08.365Z,97031.06
2023-03-31T06:45:37.925Z,97023.91
2023-03-31T06:48:05.799Z,97033.31
2023-03-31T06:50:36.549Z,97031.25
2023-03-31T06:53:04.891Z,97020.28
2023-03-31T06:55:34.025Z,97016.69
2023-03-31T06:58:01.453Z,97016.69
2023-03-31T07:00:33.087Z,97023.94
2023-03-31T07:03:02.344Z,97011.59
2023-03-31T07:05:30.805Z,97023.38
2023-03-31T07:07:59.668Z,97021.09
2023-03-31T07:10:30.093Z,97012.69
2023-03-31T07:13:04.490Z,97020.31
2023-03-31T07:15:32.827Z,97018.53
2023-03-31T07:18:02.988Z,97011.94
2023-03-31T07:20:32.518Z,97005.41
2023-03-31T07:22:59.438Z,96995.75
2023-03-31T07:26:04.424Z,97001.47
2023-03-31T07:28:35.617Z,97000.09
2023-03-31T07:31:03.174Z,96996.72
2023-03-31T07:33:31.558Z,96985.25
2023-03-31T07:36:10.873Z,96988.22
2023-03-31T07:38:41.745Z,96980.19
2023-03-31T07:41:14.381Z,96977.38
2023-03-31T07:43:45.422Z,96973.53
2023-03-31T07:46:24.517Z,96969.97
2023-03-31T07:48:58.809Z,96967.78
2023-03-31T07:51:27.968Z,96957.88
2023-03-31T07:53:55.150Z,96954.31
2023-03-31T07:56:28.191Z,96959.00
2023-03-31T07:58:57.745Z,96959.09
2023-03-31T08:01:26.441Z,96953.97
2023-03-31T08:03:55.863Z,96949.09
2023-03-31T08:06:25.269Z,96943.38
2023-03-31T08:08:55.312Z,96947.97
2023-03-31T08:11:22.355Z,96945.53
2023-03-31T08:13:53.466Z,96938.13
2023-03-31T08:16:21.432Z,96943.41
2023-03-31T08:18:48.349Z,96937.78
2023-03-31T08:21:20.154Z,96932.59
2023-03-31T08:23:48.680Z,96929.28
2023-03-31T08:26:22.401Z,96927.22
2023-03-31T08:28:49.508Z,96931.44
2023-03-31T08:31:22.218Z,96927.44
2023-03-31T08:33:50.096Z,96923.50
2023-03-31T08:36:17.547Z,96917.22
2023-03-31T08:38:54.664Z,96913.50
2023-03-31T08:41:50.446Z,96909.66
2023-03-31T08:44:28.121Z,96898.03
2023-03-31T08:46:56.373Z,96903.53
2023-03-31T08:49:25.162Z,96893.00
2023-03-31T08:52:01.284Z,96898.00
2023-03-31T08:54:49.641Z,96892.56
2023-03-31T08:57:22.371Z,96895.72
2023-03-31T08:59:51.251Z,96882.53
2023-03-31T09:02:56.024Z,96869.03
2023-03-31T09:05:59.547Z,96862.75
2023-03-31T09:08:45.247Z,96860.09
2023-03-31T09:11:39.435Z,96852.81
2023-03-31T09:14:20.667Z,96841.19
2023-03-31T09:16:47.914Z,96847.47
2023-03-31T09:19:25.461Z,96841.81
2023-03-31T09:21:56.649Z,96838.88
2023-03-31T09:24:32.751Z,96829.69
2023-03-31T09:27:05.921Z,96824.13
2023-03-31T09:29:48.461Z,96818.22
2023-03-31T09:32:32.572Z,96811.38
2023-03-31T09:35:13.322Z,96804.53
2023-03-31T09:37:40.391Z,96797.41
2023-03-31T09:40:23.098Z,96793.28
2023-03-31T09:43:22.821Z,96784.25
2023-03-31T09:48:29.858Z,96772.75
2023-03-31T09:51:23.443Z,96769.19
2023-03-31T09:54:27.148Z,96767.19
2023-03-31T09:56:54.753Z,96761.94
2023-03-31T09:59:34.773Z,96769.06
2023-03-31T10:02:05.819Z,96755.81
2023-03-31T10:04:35.554Z,96768.28
2023-03-31T10:07:05.253Z,96751.00
2023-03-31T10:09:34.586Z,96761.84
2023-03-31T10:12:16.531Z,96763.66
2023-03-31T10:14:54.022Z,96747.56
2023-03-31T10:17:24.102Z,96743.91
2023-03-31T10:20:08.103Z,96747.03
2023-03-31T10:22:44.859Z,96745.47
2023-03-31T10:25:30.323Z,96742.19
2023-03-31T10:27:58.301Z,96737.56
2023-03-31T10:30:36.059Z,96740.06
2023-03-31T10:33:22.691Z,96751.56
2023-03-31T10:35:56.424Z,96738.66
2023-03-31T10:38:37.645Z,96739.09
2023-03-31T10:41:07.957Z,96734.94
2023-03-31T10:43:51.636Z,96739.81
2023-03-31T10:46:21.122Z,96725.09
2023-03-31T10:48:48.322Z,96729.38
2023-03-31T10:51:19.577Z,96730.06
2023-03-31T10:53:51.894Z,96732.94
2023-03-31T10:56:38.856Z,96725.53
2023-03-31T10:59:24.020Z,96725.00
2023-03-31T11:02:24.605Z,96732.25
2023-03-31T11:05:23.413Z,96725.78
2023-03-31T11:08:12.657Z,96720.13
2023-03-31T11:11:27.734Z,96718.66
2023-03-31T11:14:22.460Z,96726.03
2023-03-31T11:16:59.275Z,96722.09
2023-03-31T11:20:02.346Z,96706.34
2023-03-31T11:22:48.637Z,96708.13
2023-03-31T11:25:36.244Z,96705.44
2023-03-31T11:28:32.258Z,96696.50
2023-03-31T11:31:17.858Z,96692.53
2023-03-31T11:34:00.031Z,96689.13
2023-03-31T11:36:46.726Z,96680.97
2023-03-31T11:39:47.649Z,96679.56
2023-03-31T11:42:26.923Z,96684.06
2023-03-31T11:45:02.494Z,96676.66
2023-03-31T11:47:44.905Z,96666.66
2023-03-31T11:50:17.730Z,96675.91
2023-03-31T11:52:58.481Z,96669.56
2023-03-31T11:55:29.353Z,96665.91
2023-03-31T11:58:21.132Z,96661.03
2023-03-31T12:00:54.456Z,96658.44
2023-03-31T12:03:41.901Z,96645.06
2023-03-31T12:06:17.793Z,96647.63
2023-03-31T12:09:23.906Z,96648.09
2023-03-31T12:12:35.579Z,96630.09
2023-03-31T12:15:20.867Z,96632.75
2023-03-31T12:17:57.092Z,96636.72
2023-03-31T12:20:34.941Z,96627.44
2023-03-31T12:23:09.200Z,96631.53
2023-03-31T12:26:14.152Z,96625.28
2023-03-31T12:28:44.562Z,96616.13
2023-03-31T12:31:21.991Z,96613.66
2023-03-31T12:34:07.459Z,96618.16
2023-03-31T12:37:01.839Z,96620.22
2023-03-31T12:40:00.520Z,96605.13
2023-03-31T12:42:33.925Z,96612.06
2023-03-31T12:45:19.413Z,96611.25
2023-03-31T12:48:04.936Z,96606.91
2023-03-31T12:51:10.473Z,96598.63
2023-03-31T12:54:15.404Z,96596.66
2023-03-31T12:57:06.556Z,96599.16
2023-03-31T12:59:39.721Z,96583.94
2023-03-31T13:02:11.315Z,96600.53
2023-03-31T13:04:41.341Z,96598.34
2023-03-31T13:07:28.127Z,96588.41
2023-03-31T13:10:22.200Z,96582.53
2023-03-31T13:13:14.977Z,96578.25
2023-03-31T13:15:52.744Z,96589.91
2023-03-31T13:18:22.532Z,96577.03
2023-03-31T13:21:08.024Z,96573.97
2023-03-31T13:23:37.858Z,96564.53
2023-03-31T13:26:25.894Z,96565.13
2023-03-31T13:29:17.089Z,96564.91
2023-03-31T13:32:02.951Z,96552.22
2023-03-31T13:34:36.369Z,96552.03
2023-03-31T13:37:33.690Z,96547.94
2023-03-31T13:40:13.819Z,96547.34
2023-03-31T13:43:09.708Z,96539.13
2023-03-31T13:46:18.088Z,96547.53
2023-03-31T13:49:03.467Z,96541.41
2023-03-31T13:51:55.642Z,96538.75
2023-03-31T13:54:25.658Z,96529.28
2023-03-31T13:57:19.034Z,96540.25
2023-03-31T14:00:01.241Z,96540.00
2023-03-31T14:02:28.692Z,96536.09
2023-03-31T14:05:31.656Z,96540.81
2023-03-31T14:08:30.293Z,96533.00
2023-03-31T14:11:24.694Z,96534.25
2023-03-31T14:14:16.814Z,96521.75
2023-03-31T14:16:58.489Z,96525.88
2023-03-31T14:19:56.784Z,96522.34
2023-03-31T14:22:45.188Z,96519.03
2023-03-31T14:25:28.463Z,96514.50
2023-03-31T14:28:18.746Z,96516.72
2023-03-31T14:31:01.722Z,96511.88
2023-03-31T14:33:32.725Z,96504.38
2023-03-31T14:36:06.306Z,96506.63
2023-03-31T14:38:45.358Z,96508.69
2023-03-31T14:41:30.064Z,96496.22
2023-03-31T14:44:06.475Z,96507.88
2023-03-31T14:46:38.615Z,96495.81
2023-03-31T14:49:27.444Z,96509.09
2023-03-31T14:51:59.430Z,96505.84
2023-03-31T14:57:30.674Z,96507.50
2023-03-31T15:00:09.439Z,96511.44
2023-03-31T15:02:47.044Z,96509.97
2023-03-31T15:05:35.270Z,96510.38
2023-03-31T15:08:17.676Z,96502.56
2023-03-31T15:10:58.879Z,96512.78
2023-03-31T15:13:46.632Z,96507.19
2023-03-31T15:16:43.851Z,96502.28
2023-03-31T15:19:26.763Z,96503.72
2023-03-31T15:22:03.519Z,96512.34
2023-03-31T15:24:31.970Z,96506.63
2023-03-31T15:27:10.336Z,96500.28
2023-03-31T15:29:52.273Z,96511.13
2023-03-31T15:32:30.772Z,96507.03
2023-03-31T15:37:47.480Z,96502.09
2023-03-31T15:40:29.659Z,96504.56
2023-03-31T15:43:24.453Z,96506.63
2023-03-31T15:46:02.785Z,96513.53
2023-03-31T15:49:07.240Z,96503.66
2023-03-31T15:51:41.395Z,96505.97
2023-03-31T15:54:43.428Z,96509.09
2023-03-31T15:57:20.105Z,96513.50
2023-03-31T16:02:49.406Z,96510.94
2023-03-31T16:05:32.379Z,96520.47
2023-03-31T16:08:11.596Z,96509.63
2023-03-31T16:10:45.221Z,96505.44
2023-03-31T16:13:18.281Z,96510.16
2023-03-31T16:15:49.074Z,96513.06
2023-03-31T16:18:24.594Z,96504.13
2023-03-31T16:21:13.888Z,96501.41
2023-03-31T16:23:41.696Z,96497.59
2023-03-31T16:26:09.093Z,96508.06
2023-03-31T16:28:49.693Z,96511.06
2023-03-31T16:31:37.090Z,96509.53
2023-03-31T16:34:05.295Z,96512.56
2023-03-31T16:36:32.893Z,96509.00
2023-03-31T16:39:02.317Z,96512.97
2023-03-31T16:41:29.826Z,96505.47
2023-03-31T16:43:56.976Z,96513.94
2023-03-31T16:46:25.226Z,96512.59
2023-03-31T16:49:11.914Z,96520.00
2023-03-31T16:51:42.510Z,96521.28
2023-03-31T16:54:22.121Z,96521.50
2023-03-31T16:56:59.552Z,96529.38
2023-03-31T16:59:53.566Z,96531.44
2023-03-31T17:02:21.827Z,96531.94
2023-03-31T17:04:59.692Z,96534.94
2023-03-31T17:07:36.844Z,96540.25
2023-03-31T17:10:07.312Z,96530.03
2023-03-31T17:12:45.862Z,96540.91
2023-03-31T17:15:25.685Z,96550.13
2023-03-31T17:18:00.772Z,96549.13
2023-03-31T17:20:47.550Z,96548.09
2023-03-31T17:23:35.288Z,96552.00
2023-03-31T17:26:21.633Z,96557.06
2023-03-31T17:29:10.015Z,96562.91
2023-03-31T17:34:34.594Z,96560.03
2023-03-31T17:37:15.761Z,96566.34
2023-03-31T17:39:44.561Z,96567.44
2023-03-31T17:42:27.255Z,96573.91
2023-03-31T17:48:31.501Z,96573.19
2023-03-31T18:00:58.514Z,96568.84
2023-03-31T18:03:51.915Z,96569.59
2023-03-31T18:09:38.796Z,96568.22
2023-03-31T18:15:09.896Z,96569.03
2023-03-31T18:18:25.210Z,96572.84
2023-03-31T18:20:57.081Z,96576.50
2023-03-31T18:23:48.097Z,96576.94
2023-03-31T18:33:31.852Z,96575.16
2023-03-31T18:39:17.379Z,96569.28
2023-03-31T18:44:45.598Z,96562.56
2023-03-31T18:50:27.775Z,96562.13
2023-03-31T18:56:11.168Z,96566.03
2023-03-31T18:59:09.706Z,96553.31
2023-03-31T19:02:52.638Z,96550.59
2023-03-31T19:11:35.094Z,96561.63
2023-03-31T19:17:40.915Z,96551.28
2023-03-31T19:24:03.937Z,96532.81
2023-03-31T19:29:58.957Z,96526.59
2023-03-31T19:32:37.809Z,96528.00
2023-03-31T20:02:56.256Z,96503.75
2023-03-31T20:06:11.544Z,96517.81
2023-03-31T20:09:34.247Z,96512.03
2023-03-31T20:12:14.343Z,96503.75
2023-03-31T20:15:05.251Z,96511.19
2023-03-31T20:24:10.738Z,96499.63
2023-03-31T20:26:43.685Z,96492.97
2023-03-31T20:29:21.343Z,96494.34
2023-03-31T20:32:34.916Z,96487.75
2023-03-31T20:39:05.677Z,96481.28
2023-03-31T20:42:08.034Z,96468.19
2023-03-31T20:44:54.633Z,96475.06
2023-03-31T20:47:56.343Z,96477.13
2023-03-31T20:50:32.869Z,96467.22
2023-03-31T20:56:05.989Z,96465.13
2023-03-31T20:59:32.304Z,96463.22
2023-03-31T21:02:06.870Z,96460.59
2023-03-31T21:04:38.406Z,96464.31
2023-03-31T21:07:59.846Z,96465.97
2023-03-31T21:13:23.889Z,96456.84
2023-03-31T21:16:00.863Z,96460.88
2023-03-31T21:18:42.075Z,96452.19
2023-03-31T21:21:49.941Z,96448.88
2023-03-31T21:27:43.614Z,96448.75
2023-03-31T21:37:03.582Z,96443.97
2023-03-31T21:39:41.149Z,96434.16
2023-03-31T21:43:07.957Z,96430.16
2023-03-31T21:57:45.182Z,96426.69
2023-03-31T21:57:59.415Z,96427.13
2023-03-31T22:00:15.016Z,96427.63
2023-03-31T22:03:22.322Z,96421.97
2023-03-31T22:08:48.894Z,96411.34
2023-03-31T22:14:36.710Z,96414.13
2023-03-31T22:17:53.951Z,96409.56
2023-03-31T22:34:05.506Z,96390.66
2023-03-31T22:40:02.033Z,96387.19
2023-03-31T22:43:13.936Z,96374.13
2023-03-31T22:45:59.949Z,96375.50
2023-03-31T22:48:42.630Z,96372.72
2023-03-31T22:51:15.476Z,96365.31
2023-03-31T22:54:41.509Z,96359.25
2023-03-31T22:57:40.532Z,96357.84
2023-03-31T23:00:44.157Z,96353.16
2023-03-31T23:06:23.884Z,96336.38
2023-03-31T23:09:23.799Z,96343.66
2023-03-31T23:12:12.988Z,96328.44
2023-03-31T23:15:36.579Z,96332.84
2023-03-31T23:18:25.573Z,96318.72
2023-03-31T23:20:58.877Z,96322.50
2023-03-31T23:23:32.212Z,96313.84
2023-03-31T23:26:33.584Z,96309.63
2023-03-31T23:29:49.184Z,96303.53
2023-03-31T23:32:17.730Z,96298.47
2023-03-31T23:37:51.669Z,96309.44
2023-03-31T23:41:37.564Z,96309.97
2023-03-31T23:44:04.465Z,96310.63
2023-03-31T23:49:51.895Z,96293.19
2023-03-31T23:55:13.943Z,96278.63
2023-03-31T23:57:42.826Z,96281.69
